Austinville, Virginia
Current Conditions -  °F | °C
As of 3:35 PM on Sunday 21 Dec 2014 (Local Time) from KHLX Reporting Station
Overcast Overcast  
Wind Chill: 40°   Ceiling: 2900
Heat Index: 40°   Visibility: 10mi
Dew Point: 34°   Wind: 3mph
Humidity: 78%   Direction: 150°SSE
Pressure: 30.16"   Gusts: NA
Location:  36.85°N, 80.91°W
Report Text: KHLX 212035Z AUTO 15003KT 10SM OVC029 05/01 A3016 RMK AO2 T00470011
Loading
Personal Weather Stations






























Interactive Weather Map New forecast layout! Learn more

10-Day Weather Forecast

Advertisements
Track Severe Weather on mobile